sensor_id;sensor_type;location;lat;lon;timestamp;pressure;altitude;pressure_sealevel;temperature;humidity
24746;BME280;12845;52.042;6.838;2022-07-23T00:00:51;68538.66;;;15.88;95.14
24746;BME280;12845;52.042;6.838;2022-07-23T00:03:16;68538.09;;;15.88;95.18
24746;BME280;12845;52.042;6.838;2022-07-23T00:05:42;68531.75;;;15.89;95.89
24746;BME280;12845;52.042;6.838;2022-07-23T00:08:08;68529.84;;;15.85;95.65
24746;BME280;12845;52.042;6.838;2022-07-23T00:10:33;68527.75;;;15.86;95.46
24746;BME280;12845;52.042;6.838;2022-07-23T00:15:24;68532.88;;;15.90;95.77
24746;BME280;12845;52.042;6.838;2022-07-23T00:17:50;68544.13;;;15.98;95.25
24746;BME280;12845;52.042;6.838;2022-07-23T00:22:51;68531.00;;;15.86;94.46
24746;BME280;12845;52.042;6.838;2022-07-23T00:27:42;68532.72;;;15.88;95.02
24746;BME280;12845;52.042;6.838;2022-07-23T00:30:08;68532.88;;;15.90;95.12
24746;BME280;12845;52.042;6.838;2022-07-23T00:32:53;68532.88;;;15.90;94.72
24746;BME280;12845;52.042;6.838;2022-07-23T00:37:46;68536.94;;;15.87;94.89
24746;BME280;12845;52.042;6.838;2022-07-23T00:40:12;68532.16;;;15.87;94.45
24746;BME280;12845;52.042;6.838;2022-07-23T00:42:37;68525.31;;;15.81;94.66
24746;BME280;12845;52.042;6.838;2022-07-23T00:45:03;68519.59;;;15.76;94.90
24746;BME280;12845;52.042;6.838;2022-07-23T00:47:29;68518.47;;;15.75;94.78
24746;BME280;12845;52.042;6.838;2022-07-23T01:04:28;68480.84;;;15.41;96.19
24746;BME280;12845;52.042;6.838;2022-07-23T01:06:53;68476.31;;;15.37;96.37
24746;BME280;12845;52.042;6.838;2022-07-23T01:09:19;68471.16;;;15.32;96.68
24746;BME280;12845;52.042;6.838;2022-07-23T01:14:15;68464.56;;;15.22;97.87
24746;BME280;12845;52.042;6.838;2022-07-23T01:16:42;68458.16;;;15.14;98.31
24746;BME280;12845;52.042;6.838;2022-07-23T01:21:39;68444.06;;;15.03;99.21
24746;BME280;12845;52.042;6.838;2022-07-23T01:26:30;68429.59;;;14.95;99.14
24746;BME280;12845;52.042;6.838;2022-07-23T01:31:21;68417.06;;;14.84;100.00
24746;BME280;12845;52.042;6.838;2022-07-23T01:33:47;68419.03;;;14.81;100.00
24746;BME280;12845;52.042;6.838;2022-07-23T01:36:13;68414.47;;;14.77;100.00
24746;BME280;12845;52.042;6.838;2022-07-23T01:43:29;68407.66;;;14.71;100.00
24746;BME280;12845;52.042;6.838;2022-07-23T01:45:55;68396.59;;;14.65;100.00
24746;BME280;12845;52.042;6.838;2022-07-23T01:48:20;68396.81;;;14.61;100.00
24746;BME280;12845;52.042;6.838;2022-07-23T01:55:37;68378.00;;;14.44;100.00
24746;BME280;12845;52.042;6.838;2022-07-23T02:10:09;68365.44;;;14.40;100.00
24746;BME280;12845;52.042;6.838;2022-07-23T02:12:35;68365.25;;;14.37;100.00
24746;BME280;12845;52.042;6.838;2022-07-23T02:15:00;68379.56;;;14.43;100.00
24746;BME280;12845;52.042;6.838;2022-07-23T02:17:26;68377.22;;;14.48;100.00
24746;BME280;12845;52.042;6.838;2022-07-23T02:19:51;68380.28;;;14.46;100.00
24746;BME280;12845;52.042;6.838;2022-07-23T02:24:42;68376.06;;;14.47;100.00
24746;BME280;12845;52.042;6.838;2022-07-23T02:27:07;68373.81;;;14.45;100.00
24746;BME280;12845;52.042;6.838;2022-07-23T02:29:32;68368.66;;;14.40;100.00
24746;BME280;12845;52.042;6.838;2022-07-23T02:31:58;68367.75;;;14.35;100.00
24746;BME280;12845;52.042;6.838;2022-07-23T02:34:23;68361.84;;;14.34;100.00
24746;BME280;12845;52.042;6.838;2022-07-23T02:36:49;68360.16;;;14.33;100.00
24746;BME280;12845;52.042;6.838;2022-07-23T02:39:14;68356.88;;;14.32;100.00
24746;BME280;12845;52.042;6.838;2022-07-23T02:46:30;68352.97;;;14.21;100.00
24746;BME280;12845;52.042;6.838;2022-07-23T02:48:55;68346.72;;;14.16;100.00
24746;BME280;12845;52.042;6.838;2022-07-23T02:51:21;68334.53;;;14.10;100.00
24746;BME280;12845;52.042;6.838;2022-07-23T02:56:11;68323.16;;;13.99;100.00
24746;BME280;12845;52.042;6.838;2022-07-23T02:58:37;68326.22;;;13.97;100.00
24746;BME280;12845;52.042;6.838;2022-07-23T03:01:02;68324.84;;;14.01;100.00
24746;BME280;12845;52.042;6.838;2022-07-23T03:03:28;68335.16;;;14.03;100.00
24746;BME280;12845;52.042;6.838;2022-07-23T03:05:53;68333.63;;;14.04;100.00
24746;BME280;12845;52.042;6.838;2022-07-23T03:08:18;68331.34;;;14.02;100.00
24746;BME280;12845;52.042;6.838;2022-07-23T03:10:44;68326.00;;;14.02;100.00
24746;BME280;12845;52.042;6.838;2022-07-23T03:13:09;68314.78;;;13.94;100.00
24746;BME280;12845;52.042;6.838;2022-07-23T03:15:35;68318.03;;;13.95;100.00
24746;BME280;12845;52.042;6.838;2022-07-23T03:22:50;68303.25;;;13.82;100.00
24746;BME280;12845;52.042;6.838;2022-07-23T03:27:41;68298.94;;;13.73;100.00
24746;BME280;12845;52.042;6.838;2022-07-23T03:30:07;68288.44;;;13.68;100.00
24746;BME280;12845;52.042;6.838;2022-07-23T03:37:24;68273.09;;;13.54;100.00
24746;BME280;12845;52.042;6.838;2022-07-23T03:39:50;68267.97;;;13.50;100.00
24746;BME280;12845;52.042;6.838;2022-07-23T03:44:41;68261.16;;;13.44;100.00
24746;BME280;12845;52.042;6.838;2022-07-23T03:47:06;68261.72;;;13.44;100.00
24746;BME280;12845;52.042;6.838;2022-07-23T03:51:58;68258.53;;;13.37;100.00
24746;BME280;12845;52.042;6.838;2022-07-23T03:56:48;68259.66;;;13.38;100.00
24746;BME280;12845;52.042;6.838;2022-07-23T03:59:14;68259.66;;;13.38;100.00
24746;BME280;12845;52.042;6.838;2022-07-23T04:04:05;68256.59;;;13.40;100.00
24746;BME280;12845;52.042;6.838;2022-07-23T04:06:30;68241.59;;;13.31;100.00
24746;BME280;12845;52.042;6.838;2022-07-23T04:08:56;68248.66;;;13.32;100.00
24746;BME280;12845;52.042;6.838;2022-07-23T04:11:21;68242.38;;;13.27;100.00
24746;BME280;12845;52.042;6.838;2022-07-23T04:16:12;68243.72;;;13.23;100.00
24746;BME280;12845;52.042;6.838;2022-07-23T04:18:37;68242.59;;;13.22;100.00
24746;BME280;12845;52.042;6.838;2022-07-23T04:25:53;68238.38;;;13.23;100.00
24746;BME280;12845;52.042;6.838;2022-07-23T04:28:18;68239.19;;;13.19;100.00
24746;BME280;12845;52.042;6.838;2022-07-23T04:30:44;68232.69;;;13.18;100.00
24746;BME280;12845;52.042;6.838;2022-07-23T04:33:10;68232.34;;;13.13;100.00
24746;BME280;12845;52.042;6.838;2022-07-23T04:38:01;68232.69;;;13.18;100.00
24746;BME280;12845;52.042;6.838;2022-07-23T04:42:53;68242.38;;;13.27;100.00
24746;BME280;12845;52.042;6.838;2022-07-23T04:45:18;68250.59;;;13.29;100.00
24746;BME280;12845;52.042;6.838;2022-07-23T04:47:43;68258.75;;;13.32;100.00
24746;BME280;12845;52.042;6.838;2022-07-23T04:52:34;68253.19;;;13.37;100.00
24746;BME280;12845;52.042;6.838;2022-07-23T04:55:00;68251.50;;;13.35;100.00
24746;BME280;12845;52.042;6.838;2022-07-23T04:59:50;68263.09;;;13.41;100.00
24746;BME280;12845;52.042;6.838;2022-07-23T05:04:41;68265.69;;;13.48;100.00
24746;BME280;12845;52.042;6.838;2022-07-23T05:07:07;68270.81;;;13.52;100.00
24746;BME280;12845;52.042;6.838;2022-07-23T05:09:32;68279.59;;;13.56;100.00
24746;BME280;12845;52.042;6.838;2022-07-23T05:11:57;68289.25;;;13.64;100.00
24746;BME280;12845;52.042;6.838;2022-07-23T05:14:23;68294.69;;;13.74;100.00
24746;BME280;12845;52.042;6.838;2022-07-23T05:16:48;68299.50;;;13.73;100.00
24746;BME280;12845;52.042;6.838;2022-07-23T05:19:13;68303.25;;;13.82;100.00
24746;BME280;12845;52.042;6.838;2022-07-23T05:21:39;68311.44;;;13.84;100.00
24746;BME280;12845;52.042;6.838;2022-07-23T05:26:30;68311.19;;;13.89;100.00
24746;BME280;12845;52.042;6.838;2022-07-23T05:36:11;68340.22;;;14.15;100.00
24746;BME280;12845;52.042;6.838;2022-07-23T05:38:37;68346.47;;;14.20;100.00
24746;BME280;12845;52.042;6.838;2022-07-23T05:41:02;68355.59;;;14.29;100.00
24746;BME280;12845;52.042;6.838;2022-07-23T05:45:53;68373.81;;;14.45;100.00
24746;BME280;12845;52.042;6.838;2022-07-23T05:48:19;68391.69;;;14.56;100.00
24746;BME280;12845;52.042;6.838;2022-07-23T05:50:44;68392.84;;;14.57;100.00
24746;BME280;12845;52.042;6.838;2022-07-23T05:53:10;68397.72;;;14.66;100.00
24746;BME280;12845;52.042;6.838;2022-07-23T05:55:35;68405.69;;;14.74;100.00
24746;BME280;12845;52.042;6.838;2022-07-23T05:58:00;68423.00;;;14.84;100.00
24746;BME280;12845;52.042;6.838;2022-07-23T06:02:52;68413.09;;;14.80;100.00
24746;BME280;12845;52.042;6.838;2022-07-23T06:05:18;68427.31;;;14.93;100.00
24746;BME280;12845;52.042;6.838;2022-07-23T06:12:35;68458.88;;;15.17;100.00
24746;BME280;12845;52.042;6.838;2022-07-23T06:15:00;68454.66;;;15.18;100.00
24746;BME280;12845;52.042;6.838;2022-07-23T06:17:26;68464.91;;;15.27;100.00
24746;BME280;12845;52.042;6.838;2022-07-23T06:19:52;68482.81;;;15.38;100.00
24746;BME280;12845;52.042;6.838;2022-07-23T06:22:18;68485.41;;;15.45;100.00
24746;BME280;12845;52.042;6.838;2022-07-23T06:27:09;68497.97;;;15.56;98.85
24746;BME280;12845;52.042;6.838;2022-07-23T06:29:34;68512.78;;;15.70;98.07
24746;BME280;12845;52.042;6.838;2022-07-23T06:31:59;68522.72;;;15.74;98.63
24746;BME280;12845;52.042;6.838;2022-07-23T06:39:15;68535.72;;;15.93;95.71
24746;BME280;12845;52.042;6.838;2022-07-23T06:41:41;68545.81;;;15.99;94.66
24746;BME280;12845;52.042;6.838;2022-07-23T06:44:07;68548.28;;;16.04;94.43
24746;BME280;12845;52.042;6.838;2022-07-23T06:46:32;68543.56;;;15.97;93.46
24746;BME280;12845;52.042;6.838;2022-07-23T06:48:58;68568.78;;;16.22;94.36
24746;BME280;12845;52.042;6.838;2022-07-23T06:51:23;68579.06;;;16.32;93.53
24746;BME280;12845;52.042;6.838;2022-07-23T06:53:48;68593.94;;;16.38;92.51
24746;BME280;12845;52.042;6.838;2022-07-23T06:56:14;68596.53;;;16.45;92.75
24746;BME280;12845;52.042;6.838;2022-07-23T07:01:04;68615.03;;;16.57;92.26
24746;BME280;12845;52.042;6.838;2022-07-23T07:08:22;68646.97;;;16.85;90.25
24746;BME280;12845;52.042;6.838;2022-07-23T07:13:13;68646.75;;;16.90;88.37
24746;BME280;12845;52.042;6.838;2022-07-23T07:15:38;68652.63;;;16.98;88.43
24746;BME280;12845;52.042;6.838;2022-07-23T07:18:04;68654.88;;;17.00;87.50
24746;BME280;12845;52.042;6.838;2022-07-23T07:20:29;68659.47;;;17.04;87.27
24746;BME280;12845;52.042;6.838;2022-07-23T07:25:20;68676.41;;;17.17;86.03
24746;BME280;12845;52.042;6.838;2022-07-23T07:30:11;68708.59;;;17.41;84.95
24746;BME280;12845;52.042;6.838;2022-07-23T07:39:54;68731.16;;;17.66;80.61
24746;BME280;12845;52.042;6.838;2022-07-23T07:42:20;68736.47;;;17.73;80.63
24746;BME280;12845;52.042;6.838;2022-07-23T07:44:45;68753.44;;;17.86;79.98
24746;BME280;12845;52.042;6.838;2022-07-23T07:47:11;68762.25;;;17.89;80.31
24746;BME280;12845;52.042;6.838;2022-07-23T07:49:36;68749.66;;;17.77;79.52
24746;BME280;12845;52.042;6.838;2022-07-23T07:52:02;68755.72;;;17.88;80.30
24746;BME280;12845;52.042;6.838;2022-07-23T07:56:54;68771.69;;;18.02;79.34
24746;BME280;12845;52.042;6.838;2022-07-23T07:59:19;68749.44;;;17.82;79.18
24746;BME280;12845;52.042;6.838;2022-07-23T08:01:44;68745.47;;;17.78;79.33
24746;BME280;12845;52.042;6.838;2022-07-23T08:04:10;68771.13;;;18.01;78.94
24746;BME280;12845;52.042;6.838;2022-07-23T08:06:35;68794.53;;;18.22;77.95
24746;BME280;12845;52.042;6.838;2022-07-23T08:09:01;68809.38;;;18.36;76.34
24746;BME280;12845;52.042;6.838;2022-07-23T08:11:26;68809.69;;;18.41;76.65
24746;BME280;12845;52.042;6.838;2022-07-23T08:21:07;68807.34;;;18.29;75.67
24746;BME280;12845;52.042;6.838;2022-07-23T08:28:26;68812.81;;;18.39;74.86
24746;BME280;12845;52.042;6.838;2022-07-23T08:30:52;68816.38;;;18.44;73.96
24746;BME280;12845;52.042;6.838;2022-07-23T08:33:18;68817.94;;;18.43;72.45
24746;BME280;12845;52.042;6.838;2022-07-23T08:35:48;68822.50;;;18.47;73.62
24746;BME280;12845;52.042;6.838;2022-07-23T08:38:17;68863.78;;;18.87;72.60
24746;BME280;12845;52.042;6.838;2022-07-23T08:40:45;68866.59;;;18.80;72.23
24746;BME280;12845;52.042;6.838;2022-07-23T08:43:16;68860.53;;;18.86;72.02
24746;BME280;12845;52.042;6.838;2022-07-23T08:45:47;68875.22;;;18.97;70.46
24746;BME280;12845;52.042;6.838;2022-07-23T08:48:15;68877.34;;;18.97;69.62
24746;BME280;12845;52.042;6.838;2022-07-23T08:50:46;68879.03;;;18.98;70.05
24746;BME280;12845;52.042;6.838;2022-07-23T08:53:12;68895.59;;;19.13;70.17
24746;BME280;12845;52.042;6.838;2022-07-23T08:55:39;68886.78;;;19.10;69.64
24746;BME280;12845;52.042;6.838;2022-07-23T08:58:04;68899.19;;;19.19;69.83
24746;BME280;12845;52.042;6.838;2022-07-23T09:00:30;68895.78;;;19.15;68.56
24746;BME280;12845;52.042;6.838;2022-07-23T09:02:56;68862.81;;;18.88;68.97
24746;BME280;12845;52.042;6.838;2022-07-23T09:05:21;68891.63;;;19.09;71.48
24746;BME280;12845;52.042;6.838;2022-07-23T09:16:18;68914.06;;;19.32;68.13
24746;BME280;12845;52.042;6.838;2022-07-23T09:21:25;68955.38;;;19.71;68.70
24746;BME280;12845;52.042;6.838;2022-07-23T09:26:37;68969.34;;;19.79;67.65
24746;BME280;12845;52.042;6.838;2022-07-23T09:29:18;68971.94;;;19.86;68.12
24746;BME280;12845;52.042;6.838;2022-07-23T09:31:48;68990.50;;;19.98;66.67
24746;BME280;12845;52.042;6.838;2022-07-23T09:34:24;68994.22;;;20.06;68.13
24746;BME280;12845;52.042;6.838;2022-07-23T09:36:53;69017.34;;;20.22;65.79
24746;BME280;12845;52.042;6.838;2022-07-23T09:39:37;68990.06;;;20.00;66.87
24746;BME280;12845;52.042;6.838;2022-07-23T09:42:25;69000.19;;;20.06;65.65
24746;BME280;12845;52.042;6.838;2022-07-23T09:44:53;68990.50;;;19.98;67.00
24746;BME280;12845;52.042;6.838;2022-07-23T09:52:30;69011.63;;;20.17;65.81
24746;BME280;12845;52.042;6.838;2022-07-23T09:54:58;69025.94;;;20.29;65.77
24746;BME280;12845;52.042;6.838;2022-07-23T09:57:25;69035.41;;;20.43;65.78
24746;BME280;12845;52.042;6.838;2022-07-23T09:59:51;69043.06;;;20.45;65.47
24746;BME280;12845;52.042;6.838;2022-07-23T10:02:17;69053.97;;;20.55;65.70
24746;BME280;12845;52.042;6.838;2022-07-23T10:04:43;69086.56;;;20.84;66.65
24746;BME280;12845;52.042;6.838;2022-07-23T10:07:09;69078.25;;;20.71;64.69
24746;BME280;12845;52.042;6.838;2022-07-23T10:09:38;69064.41;;;20.66;65.13
24746;BME280;12845;52.042;6.838;2022-07-23T10:14:50;69069.97;;;20.69;63.95
24746;BME280;12845;52.042;6.838;2022-07-23T10:19:44;69060.84;;;20.61;63.28
24746;BME280;12845;52.042;6.838;2022-07-23T10:22:13;69068.41;;;20.70;63.85
24746;BME280;12845;52.042;6.838;2022-07-23T10:41:41;69109.44;;;21.04;62.43
24746;BME280;12845;52.042;6.838;2022-07-23T10:44:08;69116.88;;;21.11;62.64
24746;BME280;12845;52.042;6.838;2022-07-23T10:46:34;69134.34;;;21.31;61.66
24746;BME280;12845;52.042;6.838;2022-07-23T10:52:23;69160.53;;;21.52;60.99
24746;BME280;12845;52.042;6.838;2022-07-23T10:54:56;69142.38;;;21.38;59.26
24746;BME280;12845;52.042;6.838;2022-07-23T10:57:26;69151.81;;;21.52;61.36
24746;BME280;12845;52.042;6.838;2022-07-23T11:02:38;69199.84;;;21.85;61.63
24746;BME280;12845;52.042;6.838;2022-07-23T11:05:08;69221.78;;;22.07;60.54
24746;BME280;12845;52.042;6.838;2022-07-23T11:07:35;69192.72;;;21.83;59.24
24746;BME280;12845;52.042;6.838;2022-07-23T11:10:01;69192.44;;;21.78;60.59
24746;BME280;12845;52.042;6.838;2022-07-23T11:17:31;69190.28;;;21.79;60.65
24746;BME280;12845;52.042;6.838;2022-07-23T11:22:38;69225.19;;;22.10;60.22
24746;BME280;12845;52.042;6.838;2022-07-23T11:25:04;69245.41;;;22.30;59.45
24746;BME280;12845;52.042;6.838;2022-07-23T11:27:43;69242.53;;;22.28;59.59
24746;BME280;12845;52.042;6.838;2022-07-23T11:33:18;69227.06;;;22.14;59.24
24746;BME280;12845;52.042;6.838;2022-07-23T11:35:45;69213.31;;;22.02;58.28
24746;BME280;12845;52.042;6.838;2022-07-23T11:38:18;69246.81;;;22.27;58.92
24746;BME280;12845;52.042;6.838;2022-07-23T11:40:45;69245.09;;;22.25;59.35
24746;BME280;12845;52.042;6.838;2022-07-23T11:43:11;69241.25;;;22.24;59.96
24746;BME280;12845;52.042;6.838;2022-07-23T11:45:40;69253.25;;;22.35;57.13
24746;BME280;12845;52.042;6.838;2022-07-23T11:48:08;69249.97;;;22.35;59.86
24746;BME280;12845;52.042;6.838;2022-07-23T11:50:35;69280.19;;;22.59;58.62
24746;BME280;12845;52.042;6.838;2022-07-23T11:53:01;69276.75;;;22.56;58.57
24746;BME280;12845;52.042;6.838;2022-07-23T11:55:26;69281.31;;;22.60;57.61
24746;BME280;12845;52.042;6.838;2022-07-23T11:57:54;69286.91;;;22.63;57.44
24746;BME280;12845;52.042;6.838;2022-07-23T12:00:24;69274.44;;;22.54;57.55
24746;BME280;12845;52.042;6.838;2022-07-23T12:02:57;69294.63;;;22.74;56.96
24746;BME280;12845;52.042;6.838;2022-07-23T12:05:30;69315.69;;;22.91;55.87
24746;BME280;12845;52.042;6.838;2022-07-23T12:07:56;69298.50;;;22.75;54.56
24746;BME280;12845;52.042;6.838;2022-07-23T12:10:28;69296.94;;;22.77;56.34
24746;BME280;12845;52.042;6.838;2022-07-23T12:13:02;69291.06;;;22.69;56.38
24746;BME280;12845;52.042;6.838;2022-07-23T12:17:59;69332.16;;;23.03;57.36
24746;BME280;12845;52.042;6.838;2022-07-23T12:20:26;69355.94;;;23.29;55.87
24746;BME280;12845;52.042;6.838;2022-07-23T12:22:56;69362.81;;;23.35;54.63
24746;BME280;12845;52.042;6.838;2022-07-23T12:25:24;69366.25;;;23.38;55.43
24746;BME280;12845;52.042;6.838;2022-07-23T12:32:58;69372.56;;;23.44;55.49
24746;BME280;12845;52.042;6.838;2022-07-23T12:35:36;69391.88;;;23.59;56.22
24746;BME280;12845;52.042;6.838;2022-07-23T12:38:07;69392.03;;;23.61;55.24
24746;BME280;12845;52.042;6.838;2022-07-23T12:40:34;69436.03;;;23.98;53.67
24746;BME280;12845;52.042;6.838;2022-07-23T12:43:05;69406.41;;;23.74;53.24
24746;BME280;12845;52.042;6.838;2022-07-23T12:45:46;69397.06;;;23.63;53.96
24746;BME280;12845;52.042;6.838;2022-07-23T12:48:21;69398.03;;;23.62;53.66
24746;BME280;12845;52.042;6.838;2022-07-23T12:53:20;69390.19;;;23.57;54.19
24746;BME280;12845;52.042;6.838;2022-07-23T12:55:47;69395.47;;;23.64;54.05
24746;BME280;12845;52.042;6.838;2022-07-23T12:58:18;69407.53;;;23.75;54.69
24746;BME280;12845;52.042;6.838;2022-07-23T13:01:04;69440.34;;;24.07;52.71
24746;BME280;12845;52.042;6.838;2022-07-23T13:03:40;69444.06;;;24.05;54.28
24746;BME280;12845;52.042;6.838;2022-07-23T13:06:08;69430.31;;;23.93;52.18
24746;BME280;12845;52.042;6.838;2022-07-23T13:08:35;69456.66;;;24.17;51.30
24746;BME280;12845;52.042;6.838;2022-07-23T13:11:03;69476.91;;;24.37;52.09
24746;BME280;12845;52.042;6.838;2022-07-23T13:13:31;69502.72;;;24.60;51.13
24746;BME280;12845;52.042;6.838;2022-07-23T13:15:58;69493.41;;;24.49;51.29
24746;BME280;12845;52.042;6.838;2022-07-23T13:18:24;69491.66;;;24.48;52.30
24746;BME280;12845;52.042;6.838;2022-07-23T13:20:50;69491.25;;;24.50;51.27
24746;BME280;12845;52.042;6.838;2022-07-23T13:23:16;69491.81;;;24.50;51.27
24746;BME280;12845;52.042;6.838;2022-07-23T13:25:42;69490.09;;;24.49;51.07
24746;BME280;12845;52.042;6.838;2022-07-23T13:28:08;69458.53;;;24.21;51.15
24746;BME280;12845;52.042;6.838;2022-07-23T13:30:34;69457.41;;;24.20;51.68
24746;BME280;12845;52.042;6.838;2022-07-23T13:33:01;69541.13;;;24.94;51.28
24746;BME280;12845;52.042;6.838;2022-07-23T13:35:28;69553.47;;;25.01;51.69
24746;BME280;12845;52.042;6.838;2022-07-23T13:37:53;69539.97;;;24.93;50.67
24746;BME280;12845;52.042;6.838;2022-07-23T13:40:18;69525.81;;;24.83;49.29
24746;BME280;12845;52.042;6.838;2022-07-23T13:42:44;69512.47;;;24.69;50.10
24746;BME280;12845;52.042;6.838;2022-07-23T13:45:09;69504.16;;;24.66;51.35
24746;BME280;12845;52.042;6.838;2022-07-23T13:47:35;69526.06;;;24.79;50.58
24746;BME280;12845;52.042;6.838;2022-07-23T13:50:00;69525.09;;;24.80;49.97
24746;BME280;12845;52.042;6.838;2022-07-23T13:52:26;69565.66;;;25.14;49.81
24746;BME280;12845;52.042;6.838;2022-07-23T13:54:51;69575.56;;;25.25;50.65
24746;BME280;12845;52.042;6.838;2022-07-23T13:57:17;69578.28;;;25.25;48.67
24746;BME280;12845;52.042;6.838;2022-07-23T13:59:42;69554.75;;;25.04;48.73
24746;BME280;12845;52.042;6.838;2022-07-23T14:02:08;69563.66;;;25.17;50.98
24746;BME280;12845;52.042;6.838;2022-07-23T14:04:33;69669.69;;;26.09;49.30
24746;BME280;12845;52.042;6.838;2022-07-23T14:06:59;69636.38;;;25.79;49.76
24746;BME280;12845;52.042;6.838;2022-07-23T14:09:24;69606.56;;;25.53;50.80
24746;BME280;12845;52.042;6.838;2022-07-23T14:11:50;69640.41;;;25.83;49.63
24746;BME280;12845;52.042;6.838;2022-07-23T14:14:16;69609.28;;;25.53;48.17
24746;BME280;12845;52.042;6.838;2022-07-23T14:16:42;69607.53;;;25.51;51.09
24746;BME280;12845;52.042;6.838;2022-07-23T14:19:07;69652.91;;;25.92;47.92
24746;BME280;12845;52.042;6.838;2022-07-23T14:21:33;69681.16;;;26.19;47.60
24746;BME280;12845;52.042;6.838;2022-07-23T14:23:58;69648.47;;;25.90;49.04
24746;BME280;12845;52.042;6.838;2022-07-23T14:26:23;69660.78;;;26.06;48.34
24746;BME280;12845;52.042;6.838;2022-07-23T14:28:49;69678.59;;;26.12;49.27
24746;BME280;12845;52.042;6.838;2022-07-23T14:31:14;69714.47;;;26.49;49.49
24746;BME280;12845;52.042;6.838;2022-07-23T14:33:40;69656.47;;;25.97;47.37
24746;BME280;12845;52.042;6.838;2022-07-23T14:36:05;69665.09;;;26.05;48.69
24746;BME280;12845;52.042;6.838;2022-07-23T14:38:31;69690.63;;;26.32;47.49
24746;BME280;12845;52.042;6.838;2022-07-23T14:40:57;69661.66;;;26.02;49.79
24746;BME280;12845;52.042;6.838;2022-07-23T14:43:22;69665.25;;;26.07;47.49
24746;BME280;12845;52.042;6.838;2022-07-23T14:45:47;69682.59;;;26.25;47.97
24746;BME280;12845;52.042;6.838;2022-07-23T14:48:13;69735.59;;;26.65;46.39
24746;BME280;12845;52.042;6.838;2022-07-23T14:50:39;69669.13;;;26.08;46.75
24746;BME280;12845;52.042;6.838;2022-07-23T14:53:04;69576.72;;;25.26;48.51
24746;BME280;12845;52.042;6.838;2022-07-23T14:55:33;69580.88;;;25.32;50.55
24746;BME280;12845;52.042;6.838;2022-07-23T14:57:59;69574.84;;;25.22;51.06
24746;BME280;12845;52.042;6.838;2022-07-23T15:00:25;69618.16;;;25.65;51.74
24746;BME280;12845;52.042;6.838;2022-07-23T15:03:40;69644.00;;;25.88;52.44
24746;BME280;12845;52.042;6.838;2022-07-23T15:06:15;69670.25;;;26.09;49.17
24746;BME280;12845;52.042;6.838;2022-07-23T15:09:02;69672.56;;;26.11;51.54
24746;BME280;12845;52.042;6.838;2022-07-23T15:12:40;69703.72;;;26.42;48.88
24746;BME280;12845;52.042;6.838;2022-07-23T15:16:03;69666.25;;;26.06;47.65
24746;BME280;12845;52.042;6.838;2022-07-23T15:18:32;69670.13;;;26.07;49.42
24746;BME280;12845;52.042;6.838;2022-07-23T15:20:58;69673.28;;;26.15;48.20
24746;BME280;12845;52.042;6.838;2022-07-23T15:23:24;69718.06;;;26.54;48.72
24746;BME280;12845;52.042;6.838;2022-07-23T15:25:49;69688.19;;;26.28;49.97
24746;BME280;12845;52.042;6.838;2022-07-23T15:28:15;69682.31;;;26.20;50.58
24746;BME280;12845;52.042;6.838;2022-07-23T15:30:40;69745.03;;;26.78;49.86
24746;BME280;12845;52.042;6.838;2022-07-23T15:33:07;69696.53;;;26.30;47.82
24746;BME280;12845;52.042;6.838;2022-07-23T15:35:32;69627.50;;;25.76;50.85
24746;BME280;12845;52.042;6.838;2022-07-23T15:37:58;69633.50;;;25.77;50.71
24746;BME280;12845;52.042;6.838;2022-07-23T15:40:24;69636.25;;;25.77;51.32
24746;BME280;12845;52.042;6.838;2022-07-23T15:42:50;69667.81;;;26.05;49.64
24746;BME280;12845;52.042;6.838;2022-07-23T15:45:15;69670.41;;;26.12;50.32
24746;BME280;12845;52.042;6.838;2022-07-23T15:47:41;69683.47;;;26.21;50.20
24746;BME280;12845;52.042;6.838;2022-07-23T15:50:07;69720.94;;;26.57;49.36
24746;BME280;12845;52.042;6.838;2022-07-23T15:52:33;69716.78;;;26.51;50.00
24746;BME280;12845;52.042;6.838;2022-07-23T15:54:58;69726.84;;;26.65;50.60
24746;BME280;12845;52.042;6.838;2022-07-23T15:57:24;69781.09;;;27.08;48.96
24746;BME280;12845;52.042;6.838;2022-07-23T15:59:49;69710.88;;;26.43;48.79
24746;BME280;12845;52.042;6.838;2022-07-23T16:02:15;69754.09;;;26.84;50.31
24746;BME280;12845;52.042;6.838;2022-07-23T16:04:42;69742.63;;;26.74;49.37
24746;BME280;12845;52.042;6.838;2022-07-23T16:07:07;69725.53;;;26.61;49.30
24746;BME280;12845;52.042;6.838;2022-07-23T16:09:33;69675.28;;;26.11;49.02
24746;BME280;12845;52.042;6.838;2022-07-23T16:11:58;69662.09;;;26.00;49.87
24746;BME280;12845;52.042;6.838;2022-07-23T16:14:24;69623.75;;;25.68;51.51
24746;BME280;12845;52.042;6.838;2022-07-23T16:16:49;69587.91;;;25.41;51.40
24746;BME280;12845;52.042;6.838;2022-07-23T16:19:15;69554.19;;;25.04;52.27
24746;BME280;12845;52.042;6.838;2022-07-23T16:21:40;69529.66;;;24.84;52.08
24746;BME280;12845;52.042;6.838;2022-07-23T16:24:06;69544.13;;;24.99;53.08
24746;BME280;12845;52.042;6.838;2022-07-23T16:26:32;69577.28;;;25.27;53.24
24746;BME280;12845;52.042;6.838;2022-07-23T16:28:57;69583.00;;;25.32;54.08
24746;BME280;12845;52.042;6.838;2022-07-23T16:31:22;69545.28;;;25.01;51.58
24746;BME280;12845;52.042;6.838;2022-07-23T16:33:49;69504.56;;;24.64;54.85
24746;BME280;12845;52.042;6.838;2022-07-23T16:36:14;69545.16;;;24.98;54.13
24746;BME280;12845;52.042;6.838;2022-07-23T16:38:40;69578.72;;;25.23;53.07
24746;BME280;12845;52.042;6.838;2022-07-23T16:41:06;69596.78;;;25.44;53.12
24746;BME280;12845;52.042;6.838;2022-07-23T16:43:32;69619.44;;;25.69;52.68
24746;BME280;12845;52.042;6.838;2022-07-23T16:45:59;69652.03;;;25.96;50.64
24746;BME280;12845;52.042;6.838;2022-07-23T16:48:25;69631.22;;;25.75;49.30
24746;BME280;12845;52.042;6.838;2022-07-23T16:50:50;69593.94;;;25.41;52.26
24746;BME280;12845;52.042;6.838;2022-07-23T16:53:16;69573.72;;;25.21;51.86
24746;BME280;12845;52.042;6.838;2022-07-23T16:55:42;69590.47;;;25.38;51.98